logo
Rechercher aéroport 
image banner adimage banner adimage banner ad
image banner ad

2NV8 - Mercy Air-Pahrump

Situé à Pahrump, United States

ICAO - 2NV8, IATA -

Données fournies par Airmate  

Information générale

Coordonnées: N36°11'31" W115°59'9"
Élévation : 2650 feet MSL.
 
Voir autres Aéroports à Nevada

Données opérationnelles

Special qualification required
Heure actuelle UTC:
Heure actuelle locale:
Météo à : KINS - Creech Afb ( 52 km )
METAR: KINS 130556Z AUTO 24006KT 10SM BKN130 22/14 A2995 RMK AO2 SLP102 T02150141 10261 20209 51003 $
TAF: TAF KINS 130450Z 1305/1411 23007KT 9999 SCT060 BKN110 QNH2993INS TEMPO 1308/1312 VRB18G31KT VCTS OVC090CB BECMG 1320/1321 20012KT 9999 BKN060 BKN110 QNH2982INS WND 130V200 TS OMTNS TEMPO 1323/1402 VRB19G33KT VCTS BKN050 OVC070CB BECMG 1401/1402 20012KT 9999 VCSH OVC070 QNH2984INS TS OMTNS BECMG 1403/1404 VRB20G40KT 6000 -TSRA SCT030 OVC050CB QNH2986INS BECMG 1407/1408 13010KT 9999 VCSH SCT070 BKN090 QNH2987INS SHRA OMTNS TX29/1322Z TN20/1312Z
Voir NOTAMs / SUP AIP / TFR affectant cet aéroport [VIEW]
Fréquences de communication: [VIEW]

Pistes:

Coordonnées de l'aéroport

Adresse: Pahrump United States

Vue satellite de 2NV8